Time;durP1;ratioP1;P1;durP2;ratioP2;P2;SDS_P1;SDS_P2;PMS_P1;PMS_P2;Temp;Humidity;BMP_temperature;BMP_pressure;BME280_temperature;BME280_humidity;BME280_pressure;Samples;Min_cycle;Max_cycle;Signal;HPM_P1;HPM_P2
2021/11/02 00:01:12;;;;;;;54.58;30.17;;;;;;;4.79;100.00;100667.59;5025785;28;20091;-60
2021/11/02 00:03:57;;;;;;;54.83;29.40;;;;;;;4.90;100.00;100668.63;5017955;28;20122;-57
2021/11/02 00:06:41;;;;;;;;;;;;;;;5.00;100.00;100674.06;5018637;28;20068;-59
2021/11/02 00:09:30;;;;;;;59.58;31.65;;;;;;;5.05;100.00;100666.25;5022568;28;19928;-60
2021/11/02 00:12:16;;;;;;;56.03;30.45;;;;;;;5.12;100.00;100670.78;5022150;28;20048;-62
2021/11/02 00:15:01;;;;;;;58.63;31.00;;;;;;;5.17;100.00;100679.59;5016367;28;20145;-61
2021/11/02 00:17:47;;;;;;;83.65;34.38;;;;;;;5.15;100.00;100678.72;5013196;28;20116;-66
2021/11/02 00:20:34;;;;;;;78.57;34.50;;;;;;;5.10;100.00;100669.84;5003619;28;20086;-62
2021/11/02 00:23:20;;;;;;;74.07;33.75;;;;;;;5.20;100.00;100673.50;5005294;28;20053;-63
2021/11/02 00:26:07;;;;;;;81.03;35.08;;;;;;;5.28;100.00;100672.78;5021936;28;20051;-62
2021/11/02 00:28:52;;;;;;;87.90;35.08;;;;;;;5.28;100.00;100661.38;5018898;28;20139;-63
2021/11/02 00:31:37;;;;;;;116.10;37.50;;;;;;;5.01;100.00;100656.56;5004352;28;20057;-64
2021/11/02 00:34:22;;;;;;;91.03;35.55;;;;;;;5.04;100.00;100654.00;4994520;28;20531;-62
2021/11/02 00:37:11;;;;;;;71.70;31.88;;;;;;;5.14;100.00;100653.25;5020288;28;20060;-60
2021/11/02 00:39:56;;;;;;;77.28;32.63;;;;;;;5.26;100.00;100658.72;5021383;28;20413;-56
2021/11/02 00:42:56;;;;;;;96.85;36.25;;;;;;;5.34;100.00;100651.81;5020060;28;20047;-55
2021/11/02 00:45:41;;;;;;;157.75;48.25;;;;;;;4.82;100.00;100658.00;5004328;28;20061;-62
2021/11/02 00:48:29;;;;;;;120.38;43.80;;;;;;;4.60;100.00;100652.38;4981301;28;20087;-63
2021/11/02 00:51:14;;;;;;;136.30;46.22;;;;;;;4.27;100.00;100655.25;5025382;28;20132;-60
2021/11/02 00:54:00;;;;;;;104.07;41.45;;;;;;;4.20;100.00;100657.72;4996233;28;20583;-64
2021/11/02 00:56:45;;;;;;;76.05;34.47;;;;;;;4.49;100.00;100651.28;5011011;28;20536;-61
2021/11/02 00:59:30;;;;;;;73.13;34.42;;;;;;;4.85;100.00;100652.81;5006629;28;20064;-61
2021/11/02 01:02:15;;;;;;;72.20;32.50;;;;;;;5.03;100.00;100658.34;5020128;28;20080;-60
2021/11/02 01:05:00;;;;;;;89.22;34.50;;;;;;;5.22;100.00;100671.81;5016390;28;20048;-66
2021/11/02 01:07:45;;;;;;;89.30;36.13;;;;;;;5.30;100.00;100673.66;5000166;28;20131;-64
2021/11/02 01:10:30;;;;;;;76.20;33.35;;;;;;;5.30;100.00;100662.28;5025137;28;20404;-61
2021/11/02 01:13:17;;;;;;;76.95;33.90;;;;;;;5.40;100.00;100667.69;5019329;28;20048;-63
2021/11/02 01:16:28;;;;;;;77.25;33.05;;;;;;;5.48;100.00;100668.69;5022570;28;20108;-63
2021/11/02 01:19:43;;;;;;;70.45;31.05;;;;;;;5.54;100.00;100660.88;5022576;28;20056;-59
2021/11/02 01:22:59;;;;;;;68.53;32.42;;;;;;;5.58;100.00;100662.69;5019796;28;20072;-65
2021/11/02 01:26:15;;;;;;;;;;;;;;;5.64;100.00;100659.25;5017244;28;20048;-58
2021/11/02 04:42:59;;;;;;;164.40;37.20;;;;;;;4.72;100.00;100681.47;4875321;29;20106;-65
2021/11/02 05:07:29;;;;;;;89.03;36.80;;;;;;;5.18;100.00;100697.13;4929536;29;20045;-57
2021/11/02 05:13:33;;;;;;;122.68;35.50;;;;;;;4.94;100.00;100705.50;4946376;28;20487;-59
2021/11/02 05:20:09;;;;;;;87.95;33.85;;;;;;;4.96;100.00;100695.03;4945720;28;20152;-60
2021/11/02 05:58:59;;;;;;;57.95;27.15;;;;;;;5.48;100.00;100712.50;4964846;28;20390;-65
2021/11/02 06:30:12;;;;;;;81.43;29.17;;;;;;;5.71;100.00;100713.75;4986584;28;20049;-59
2021/11/02 06:57:35;;;;;;;61.17;28.25;;;;;;;6.21;100.00;100739.06;4962618;28;20114;-61
2021/11/02 07:18:58;;;;;;;72.47;32.83;;;;;;;6.43;100.00;100736.69;4987651;28;20056;-59
2021/11/02 08:46:21;;;;;;;73.18;30.90;;;;;;;7.74;100.00;100761.69;5018985;28;20662;-61
2021/11/02 08:49:07;;;;;;;69.88;30.13;;;;;;;7.58;100.00;100749.25;4981215;28;20053;-64
2021/11/02 08:51:57;;;;;;;62.53;27.90;;;;;;;7.65;100.00;100757.25;5020054;28;20059;-63
2021/11/02 08:54:44;;;;;;;66.78;28.83;;;;;;;7.69;100.00;100758.13;4996746;28;20593;-66
2021/11/02 08:57:28;;;;;;;59.17;27.23;;;;;;;7.71;100.00;100749.34;5021058;28;20048;-71
2021/11/02 09:00:17;;;;;;;53.05;27.40;;;;;;;7.78;100.00;100742.34;5021752;28;20056;-64
2021/11/02 09:03:09;;;;;;;59.38;26.35;;;;;;;7.80;100.00;100746.75;5008547;28;20949;-66
2021/11/02 09:05:59;;;;;;;57.20;25.80;;;;;;;7.88;100.00;100752.97;5021267;28;20051;-69
2021/11/02 09:08:54;;;;;;;60.25;25.83;;;;;;;7.91;100.00;100750.34;5020105;28;20052;-63
2021/11/02 09:11:41;;;;;;;54.17;24.15;;;;;;;7.80;100.00;100745.91;5008946;28;20192;-63
2021/11/02 09:14:31;;;;;;;47.35;23.80;;;;;;;7.88;100.00;100741.53;5018060;28;20413;-64
2021/11/02 09:17:20;;;;;;;52.60;25.42;;;;;;;7.84;100.00;100745.03;5009338;28;20521;-60
2021/11/02 09:20:06;;;;;;;54.85;25.67;;;;;;;7.80;100.00;100744.13;5016949;28;20792;-60
2021/11/02 09:22:52;;;;;;;60.63;25.58;;;;;;;7.85;100.00;100749.44;5020889;28;20100;-59
2021/11/02 09:25:38;;;;;;;53.95;25.83;;;;;;;7.92;100.00;100744.19;5005300;28;20099;-63
2021/11/02 09:28:26;;;;;;;56.90;26.02;;;;;;;7.92;100.00;100748.63;5016153;28;20056;-65
2021/11/02 09:31:12;;;;;;;57.38;26.58;;;;;;;7.94;100.00;100745.09;5016838;28;20061;-65
2021/11/02 09:33:58;;;;;;;57.22;25.50;;;;;;;7.88;100.00;100758.25;5019391;28;20061;-64
2021/11/02 09:36:49;;;;;;;55.45;25.45;;;;;;;7.94;100.00;100755.66;5020827;28;20590;-61
2021/11/02 09:39:41;;;;;;;64.03;27.42;;;;;;;7.77;100.00;100757.31;5007877;28;20465;-66
2021/11/02 09:42:49;;;;;;;57.10;26.35;;;;;;;7.82;100.00;100750.31;5018307;28;20049;-62
2021/11/02 09:45:57;;;;;;;58.53;26.40;;;;;;;7.87;100.00;100745.06;5006437;28;20052;-64
2021/11/02 09:49:33;;;;;;;57.70;25.17;;;;;;;7.93;100.00;100742.44;5018247;28;20111;-68
2021/11/02 09:52:36;;;;;;;55.78;25.67;;;;;;;7.91;100.00;100750.34;5024763;28;20552;-67
2021/11/02 09:55:35;;;;;;;49.42;23.20;;;;;;;7.99;100.00;100742.50;5021501;28;20088;-64
2021/11/02 09:58:52;;;;;;;52.65;25.58;;;;;;;8.02;100.00;100742.50;5018894;28;20088;-69
2021/11/02 10:02:06;;;;;;;48.35;24.65;;;;;;;7.97;100.00;100738.97;5019346;28;20064;-66
2021/11/02 10:05:13;;;;;;;52.63;24.30;;;;;;;7.94;100.00;100739.81;5014840;28;20081;-58
2021/11/02 10:08:28;;;;;;;49.00;24.15;;;;;;;8.05;100.00;100737.25;5001024;28;20556;-62
2021/11/02 10:11:46;;;;;;;51.15;24.80;;;;;;;7.97;100.00;100741.59;5017514;28;20072;-56
2021/11/02 10:14:59;;;;;;;57.05;24.63;;;;;;;7.89;100.00;100732.75;5015709;28;20735;-59
2021/11/02 10:18:12;;;;;;;54.05;25.83;;;;;;;7.78;100.00;100732.69;5018722;28;20453;-61
2021/11/02 10:21:10;;;;;;;49.63;24.88;;;;;;;7.83;100.00;100738.00;5013579;28;20108;-60
2021/11/02 10:23:54;;;;;;;52.47;25.13;;;;;;;7.87;100.00;100737.16;5020130;28;20418;-67
2021/11/02 10:26:55;;;;;;;;;;;;;;;7.86;100.00;100730.06;5005740;28;20048;-65
2021/11/02 10:29:52;;;;;;;52.35;24.05;;;;;;;7.86;100.00;100733.63;5025650;28;19935;-69
2021/11/02 10:32:48;;;;;;;54.33;24.15;;;;;;;7.77;100.00;100730.94;5003604;28;20720;-67
2021/11/02 10:36:11;;;;;;;52.45;25.38;;;;;;;7.94;100.00;100725.72;4993094;28;20077;-66
2021/11/02 10:39:22;;;;;;;47.50;24.40;;;;;;;8.03;100.00;100729.31;5020858;28;20056;-70
2021/11/02 10:42:28;;;;;;;50.40;25.17;;;;;;;8.05;100.00;100729.31;4990564;28;20588;-67
2021/11/02 10:45:17;;;;;;;51.60;24.92;;;;;;;8.09;100.00;100726.72;5018875;28;20096;-65
2021/11/02 10:48:06;;;;;;;58.70;26.98;;;;;;;7.98;100.00;100723.13;4993819;28;20131;-64
2021/11/02 10:50:57;;;;;;;58.15;28.77;;;;;;;7.99;100.00;100716.09;5020670;28;20405;-68
2021/11/02 10:54:17;;;;;;;62.97;31.13;;;;;;;8.00;100.00;100710.78;5018256;28;20156;-67
2021/11/02 10:57:23;;;;;;;60.10;30.23;;;;;;;7.96;100.00;100714.28;5019034;28;20154;-68
2021/11/02 11:00:10;;;;;;;60.63;29.90;;;;;;;7.92;100.00;100715.16;5007622;28;20057;-69
2021/11/02 11:02:56;;;;;;;59.55;27.73;;;;;;;8.03;100.00;100716.09;5017466;28;20104;-64
2021/11/02 11:05:54;;;;;;;52.53;26.95;;;;;;;8.03;100.00;100716.09;4992071;28;20048;-69
2021/11/02 11:08:48;;;;;;;55.30;26.92;;;;;;;8.03;100.00;100710.81;5016922;28;20048;-66
2021/11/02 11:11:39;;;;;;;63.93;27.40;;;;;;;7.96;100.00;100721.34;5019572;28;20057;-64
2021/11/02 11:14:31;;;;;;;58.75;27.63;;;;;;;7.99;100.00;100719.59;5004810;28;20048;-64
2021/11/02 11:17:16;;;;;;;63.15;28.23;;;;;;;7.87;100.00;100714.25;5020774;28;20583;-68
2021/11/02 11:20:12;;;;;;;59.65;27.65;;;;;;;7.89;100.00;100709.88;5004092;28;20099;-64
2021/11/02 11:22:59;;;;;;;63.83;29.08;;;;;;;7.80;100.00;100707.16;4999566;28;20076;-65
2021/11/02 11:25:48;;;;;;;59.13;29.38;;;;;;;7.75;100.00;100703.63;5009650;28;20100;-60
2021/11/02 11:28:42;;;;;;;65.30;28.50;;;;;;;7.88;100.00;100708.09;5016846;28;20049;-66
2021/11/02 11:31:29;;;;;;;64.57;28.95;;;;;;;7.84;100.00;100708.06;4990711;28;20805;-66
2021/11/02 11:34:16;;;;;;;66.35;29.67;;;;;;;7.85;100.00;100707.19;5005177;28;20057;-67
2021/11/02 11:37:03;;;;;;;65.93;29.92;;;;;;;7.83;100.00;100709.81;4994867;28;20732;-66
2021/11/02 11:40:05;;;;;;;65.07;29.83;;;;;;;7.80;100.00;100706.28;5006790;28;20091;-70
2021/11/02 11:42:54;;;;;;;75.35;31.20;;;;;;;7.77;100.00;100709.81;5022666;28;20183;-71
2021/11/02 11:45:42;;;;;;;64.15;30.38;;;;;;;7.83;100.00;100708.97;4993132;28;20442;-63
2021/11/02 11:48:28;;;;;;;72.85;30.58;;;;;;;7.86;100.00;100711.59;4984146;28;20053;-70
2021/11/02 11:51:29;;;;;;;64.65;29.15;;;;;;;7.94;100.00;100701.97;5005796;28;20071;-67
2021/11/02 11:54:14;;;;;;;70.00;30.65;;;;;;;7.84;100.00;100698.38;5025619;28;20044;-66
2021/11/02 11:57:05;;;;;;;70.63;30.42;;;;;;;7.80;100.00;100701.00;4995783;28;20167;-73
2021/11/02 11:59:51;;;;;;;70.05;29.75;;;;;;;7.81;100.00;100700.13;5016506;28;20048;-67
2021/11/02 12:02:48;;;;;;;79.22;31.00;;;;;;;7.85;100.00;100702.81;5025143;28;20852;-65
2021/11/02 12:05:46;;;;;;;69.22;29.88;;;;;;;7.72;100.00;100700.09;5009665;28;20468;-65
2021/11/02 12:08:46;;;;;;;71.47;29.70;;;;;;;7.69;100.00;100697.41;5005034;28;20049;-65
2021/11/02 12:11:33;;;;;;;69.15;29.45;;;;;;;7.66;100.00;100700.03;4991529;28;20299;-67
2021/11/02 12:14:27;;;;;;;66.13;30.42;;;;;;;7.45;100.00;100706.06;4992687;28;20049;-67
2021/11/02 12:17:17;;;;;;;66.15;28.17;;;;;;;7.50;100.00;100693.78;5004294;28;20056;-69
2021/11/02 12:20:11;;;;;;;71.78;29.52;;;;;;;7.45;100.00;100700.78;4989350;28;20485;-66
2021/11/02 12:23:13;;;;;;;65.20;29.48;;;;;;;7.41;100.00;100699.00;5003500;28;20103;-67
2021/11/02 12:26:05;;;;;;;62.75;27.63;;;;;;;7.23;100.00;100705.88;5001556;28;20057;-67
2021/11/02 12:28:51;;;;;;;68.38;28.50;;;;;;;7.34;100.00;100707.75;5004891;28;20096;-65
2021/11/02 12:31:38;;;;;;;58.88;27.63;;;;;;;7.42;100.00;100702.50;4990558;28;20146;-65
2021/11/02 12:34:27;;;;;;;66.68;28.67;;;;;;;7.42;100.00;100695.47;5020516;28;20049;-68
2021/11/02 12:37:13;;;;;;;62.88;27.05;;;;;;;7.45;100.00;100697.25;5005891;28;20060;-66
2021/11/02 12:40:26;;;;;;;58.78;27.27;;;;;;;7.54;100.00;100698.22;5006606;28;20681;-67
2021/11/02 12:43:23;;;;;;;60.53;27.38;;;;;;;7.54;100.00;100707.88;4991429;28;20048;-66
2021/11/02 12:46:10;;;;;;;60.78;26.83;;;;;;;7.45;100.00;100706.06;5004507;28;20099;-65
2021/11/02 12:49:00;;;;;;;68.32;27.88;;;;;;;7.40;100.00;100699.84;5002879;28;20421;-66
2021/11/02 12:51:52;;;;;;;65.53;27.27;;;;;;;7.45;100.00;100703.44;5003294;28;20107;-72
2021/11/02 12:54:40;;;;;;;67.18;28.17;;;;;;;7.37;100.00;100697.22;5003148;28;20537;-68
2021/11/02 12:57:36;;;;;;;64.20;28.38;;;;;;;7.39;100.00;100705.13;5018318;28;20053;-65
2021/11/02 13:00:27;;;;;;;69.60;29.00;;;;;;;7.36;100.00;100700.69;4990216;28;20064;-65
2021/11/02 13:03:28;;;;;;;66.78;28.10;;;;;;;7.42;100.00;100695.47;5003343;28;20132;-68
2021/11/02 13:06:16;;;;;;;70.68;29.80;;;;;;;7.26;100.00;100695.34;5003027;28;20049;-64
2021/11/02 13:09:02;;;;;;;64.38;28.17;;;;;;;7.09;100.00;100689.06;4992595;28;20409;-63
2021/11/02 13:12:12;;;;;;;78.85;31.13;;;;;;;7.21;100.00;100697.06;4999639;28;20127;-69
2021/11/02 13:15:10;;;;;;;74.03;28.38;;;;;;;7.29;100.00;100693.63;5005238;28;20540;-71
2021/11/02 13:18:00;;;;;;;70.32;29.38;;;;;;;7.27;100.00;100695.34;4989959;28;20525;-64
2021/11/02 13:20:50;;;;;;;77.45;30.45;;;;;;;7.23;100.00;100701.47;4962317;28;20415;-63
2021/11/02 13:23:40;;;;;;;74.47;30.58;;;;;;;7.23;100.00;100697.94;5001192;28;20057;-66
2021/11/02 13:26:28;;;;;;;67.85;29.50;;;;;;;7.26;100.00;100701.50;5004840;28;20686;-66
2021/11/02 13:29:23;;;;;;;70.57;29.13;;;;;;;7.32;100.00;100708.59;5002524;28;20057;-66
2021/11/02 13:32:08;;;;;;;;;;;;;;;7.23;100.00;100711.13;4994139;28;20056;-65
2021/11/02 13:34:53;;;;;;;69.07;29.77;;;;;;;7.11;100.00;100701.38;5006654;28;19984;-68
2021/11/02 13:37:40;;;;;;;71.60;29.73;;;;;;;7.08;100.00;100709.25;5012607;28;20336;-63
2021/11/02 13:40:40;;;;;;;76.68;31.10;;;;;;;7.19;100.00;100714.63;5000842;28;20053;-64
2021/11/02 13:43:33;;;;;;;70.13;29.90;;;;;;;7.12;100.00;100711.06;4986108;28;20128;-67
2021/11/02 13:46:24;;;;;;;68.80;29.23;;;;;;;7.06;100.00;100704.84;4996392;28;20052;-63
2021/11/02 13:49:11;;;;;;;69.32;28.92;;;;;;;7.06;100.00;100702.22;4998738;28;20053;-71
2021/11/02 13:51:56;;;;;;;69.05;27.45;;;;;;;7.00;100.00;100695.13;5017958;28;20103;-67
2021/11/02 13:54:42;;;;;;;71.75;28.10;;;;;;;6.92;100.00;100701.22;5002350;28;20129;-70
2021/11/02 13:57:27;;;;;;;64.57;27.65;;;;;;;7.00;100.00;100694.25;5002727;28;20053;-68
2021/11/02 14:00:13;;;;;;;71.18;28.60;;;;;;;7.05;100.00;100690.78;4995954;28;20484;-69
2021/11/02 14:03:06;;;;;;;70.63;28.92;;;;;;;7.00;100.00;100689.84;5002451;28;20426;-70
2021/11/02 14:05:55;;;;;;;66.80;28.10;;;;;;;7.11;100.00;100693.47;5016879;28;20457;-67
2021/11/02 14:08:44;;;;;;;68.15;28.85;;;;;;;7.05;100.00;100685.53;4983355;28;20131;-64
2021/11/02 14:11:37;;;;;;;72.07;28.98;;;;;;;7.18;100.00;100697.94;5010047;28;20414;-66
2021/11/02 14:14:36;;;;;;;82.10;31.55;;;;;;;7.20;100.00;100697.94;5005867;28;20520;-66
2021/11/02 14:17:26;;;;;;;74.95;30.60;;;;;;;7.19;100.00;100697.06;4992754;28;20056;-65
2021/11/02 14:20:33;;;;;;;68.82;28.63;;;;;;;7.12;100.00;100683.81;5001238;28;20092;-73
2021/11/02 14:23:34;;;;;;;60.58;26.95;;;;;;;6.96;100.00;100693.31;5020117;28;20056;-66
2021/11/02 14:26:31;;;;;;;67.35;26.65;;;;;;;6.96;100.00;100688.06;5004607;28;20099;-63
2021/11/02 14:29:18;;;;;;;67.65;26.83;;;;;;;6.90;100.00;100685.38;5004160;28;20115;-64
2021/11/02 14:32:08;;;;;;;66.65;28.13;;;;;;;6.76;100.00;100691.41;5016279;28;20429;-64
2021/11/02 14:34:56;;;;;;;67.35;26.98;;;;;;;6.88;100.00;100688.88;5010930;28;20393;-67
2021/11/02 14:37:54;;;;;;;67.45;28.60;;;;;;;6.93;100.00;100679.25;5024007;28;20049;-62
2021/11/02 14:40:51;;;;;;;59.83;26.48;;;;;;;6.99;100.00;100677.53;5020674;28;20059;-64
2021/11/02 14:43:37;;;;;;;69.00;27.85;;;;;;;6.96;100.00;100674.00;5021689;28;20148;-64
2021/11/02 14:46:22;;;;;;;60.60;26.85;;;;;;;6.95;100.00;100681.03;5023321;28;20052;-67
2021/11/02 14:49:32;;;;;;;58.33;25.25;;;;;;;6.94;100.00;100674.00;5015712;28;20052;-70
2021/11/02 14:52:26;;;;;;;58.60;24.70;;;;;;;6.93;100.00;100664.28;5020292;28;20111;-69
2021/11/02 14:55:12;;;;;;;61.67;25.15;;;;;;;6.82;100.00;100662.44;5002960;28;20055;-67
2021/11/02 14:58:00;;;;;;;55.45;24.58;;;;;;;6.86;100.00;100657.22;5017183;28;20203;-64
2021/11/02 15:00:49;;;;;;;50.45;22.63;;;;;;;6.89;100.00;100646.69;4995084;28;20115;-69
2021/11/02 15:03:36;;;;;;;48.55;21.92;;;;;;;6.87;100.00;100652.81;5021474;28;20192;-64
2021/11/02 15:06:46;;;;;;;51.15;22.77;;;;;;;6.93;100.00;100658.16;5018580;28;20091;-66
2021/11/02 15:09:36;;;;;;;48.03;21.48;;;;;;;6.93;100.00;100660.78;5006207;28;20055;-65
2021/11/02 15:12:23;;;;;;;50.92;21.60;;;;;;;6.94;100.00;100667.81;5004932;28;20073;-64
2021/11/02 15:15:09;;;;;;;46.97;20.98;;;;;;;6.67;100.00;100671.09;5017044;28;20045;-63
2021/11/02 15:18:08;;;;;;;43.67;20.75;;;;;;;6.70;100.00;100670.25;5021273;28;20136;-68
2021/11/02 15:21:02;;;;;;;43.00;20.25;;;;;;;6.70;100.00;100671.13;4993440;28;20704;-61
2021/11/02 15:23:51;;;;;;;44.85;20.52;;;;;;;6.67;100.00;100671.09;5003262;28;20088;-65
2021/11/02 15:26:58;;;;;;;42.25;19.85;;;;;;;6.82;100.00;100679.16;5011934;28;20112;-66
2021/11/02 15:29:52;;;;;;;39.92;19.77;;;;;;;6.79;100.00;100668.56;5006751;28;20053;-68
2021/11/02 15:32:45;;;;;;;38.78;17.85;;;;;;;6.89;100.00;100674.81;5002551;28;20045;-66
2021/11/02 15:35:31;;;;;;;35.45;17.48;;;;;;;6.90;100.00;100673.94;4991159;28;20472;-64
2021/11/02 15:38:27;;;;;;;38.88;18.42;;;;;;;6.91;100.00;100683.59;5018170;28;20052;-69
2021/11/02 15:41:24;;;;;;;42.28;18.48;;;;;;;6.79;100.00;100687.03;5020698;28;20072;-67
2021/11/02 15:44:15;;;;;;;43.00;19.10;;;;;;;6.68;100.00;100685.16;5002734;28;20052;-65
2021/11/02 15:47:05;;;;;;;37.03;18.95;;;;;;;6.72;100.00;100681.69;4991141;28;20111;-67
2021/11/02 15:50:00;;;;;;;36.35;17.60;;;;;;;6.78;100.00;100694.91;5008557;28;20160;-62
2021/11/02 15:52:47;;;;;;;33.50;16.50;;;;;;;6.67;100.00;100694.81;5002127;28;20528;-73
2021/11/02 15:55:36;;;;;;;36.40;17.92;;;;;;;6.56;100.00;100688.53;4987337;28;20345;-65
2021/11/02 15:58:25;;;;;;;37.17;17.90;;;;;;;6.54;100.00;100687.66;5018661;28;20055;-65
2021/11/02 16:01:09;;;;;;;43.97;18.55;;;;;;;6.40;100.00;100697.13;5002482;28;20084;-64
2021/11/02 16:04:11;;;;;;;41.78;18.95;;;;;;;6.48;100.00;100699.88;5007642;28;20124;-72
2021/11/02 16:07:00;;;;;;;35.85;17.50;;;;;;;6.43;100.00;100691.03;4995086;28;20044;-64
2021/11/02 16:09:55;;;;;;;39.85;18.13;;;;;;;6.58;100.00;100688.56;4999839;28;20048;-66
2021/11/02 16:12:43;;;;;;;38.85;17.73;;;;;;;6.60;100.00;100684.22;5016077;28;20092;-67
2021/11/02 16:15:33;;;;;;;34.83;17.27;;;;;;;6.60;100.00;100687.69;5015686;28;20137;-65
2021/11/02 16:18:24;;;;;;;38.05;18.05;;;;;;;6.68;100.00;100683.38;5005679;28;20065;-70
2021/11/02 16:21:11;;;;;;;35.65;17.13;;;;;;;6.67;100.00;100681.63;5020848;28;20046;-74
2021/11/02 16:24:05;;;;;;;;;;;;;;;6.55;100.00;100686.78;5006860;28;20096;-66
2021/11/02 16:26:52;;;;;;;33.65;15.80;;;;;;;6.54;100.00;100676.22;5005825;28;19963;-69
2021/11/02 16:29:37;;;;;;;36.35;16.80;;;;;;;6.36;100.00;100681.28;5002686;28;20478;-70
2021/11/02 16:32:29;;;;;;;;;;;;;;;6.38;100.00;100685.72;5020778;28;20460;-65
2021/11/02 16:35:34;;;;;;;35.67;17.00;;;;;;;6.39;100.00;100687.47;5017393;28;20826;-71
2021/11/02 16:38:40;;;;;;;37.10;18.38;;;;;;;6.49;100.00;100685.84;5005332;28;20064;-67
2021/11/02 16:41:28;;;;;;;36.05;17.50;;;;;;;6.59;100.00;100687.69;4984562;28;20091;-72
2021/11/02 16:44:24;;;;;;;37.33;18.40;;;;;;;6.64;100.00;100681.59;5019110;28;20513;-64
2021/11/02 16:47:18;;;;;;;34.40;17.65;;;;;;;6.71;100.00;100683.44;5017818;28;20185;-67
2021/11/02 16:50:08;;;;;;;45.97;18.45;;;;;;;6.60;100.00;100689.47;5001638;28;20048;-63
2021/11/02 16:53:06;;;;;;;33.92;16.73;;;;;;;6.57;100.00;100689.44;5005135;28;20076;-68
2021/11/02 16:55:54;;;;;;;36.80;17.42;;;;;;;6.30;100.00;100703.19;5006034;28;20422;-66
2021/11/02 16:58:46;;;;;;;34.13;16.70;;;;;;;6.25;100.00;100696.09;5003206;28;20060;-68
2021/11/02 17:01:34;;;;;;;32.33;17.42;;;;;;;6.18;100.00;100705.66;5019430;28;20137;-67
2021/11/02 17:04:28;;;;;;;35.83;17.48;;;;;;;6.25;100.00;100688.19;5019133;28;20524;-65
2021/11/02 17:07:12;;;;;;;36.80;16.75;;;;;;;6.33;100.00;100681.25;5020594;28;20717;-65
2021/11/02 17:10:20;;;;;;;35.88;17.15;;;;;;;6.27;100.00;100684.72;5005507;28;20184;-67
2021/11/02 17:13:08;;;;;;;34.22;17.05;;;;;;;6.37;100.00;100683.94;4939409;28;20078;-67
2021/11/02 17:16:15;;;;;;;38.47;17.55;;;;;;;6.47;100.00;100680.53;4931723;29;20122;-64
2021/11/02 17:19:06;;;;;;;29.55;15.27;;;;;;;6.50;100.00;100684.97;4942231;28;20055;-65
2021/11/02 17:21:55;;;;;;;31.75;16.05;;;;;;;6.51;100.00;100676.19;4941975;28;20085;-65
2021/11/02 17:24:48;;;;;;;36.42;17.33;;;;;;;6.48;100.00;100677.03;4949945;28;20094;-65
2021/11/02 17:27:36;;;;;;;36.38;17.52;;;;;;;6.46;100.00;100681.41;4935314;28;20139;-68
2021/11/02 17:30:25;;;;;;;37.85;17.95;;;;;;;6.49;100.00;100683.19;4937823;28;20113;-63
2021/11/02 17:33:12;;;;;;;33.65;17.23;;;;;;;6.46;100.00;100681.41;4949746;28;20049;-64
2021/11/02 17:35:57;;;;;;;33.35;16.67;;;;;;;6.31;100.00;100669.81;4940104;28;20053;-68
2021/11/02 17:38:48;;;;;;;37.58;17.05;;;;;;;6.39;100.00;100682.22;4929546;28;20081;-63
2021/11/02 17:41:35;;;;;;;35.92;16.63;;;;;;;6.42;100.00;100679.63;4931378;28;20047;-67
2021/11/02 17:44:21;;;;;;;34.58;16.40;;;;;;;6.42;100.00;100669.09;4931524;28;20099;-66
2021/11/02 17:47:09;;;;;;;30.75;15.85;;;;;;;6.34;100.00;100662.84;4924979;28;20058;-64
2021/11/02 17:49:55;;;;;;;33.10;16.27;;;;;;;6.43;100.00;100664.69;4981838;28;20552;-65
2021/11/02 17:52:41;;;;;;;29.55;15.75;;;;;;;6.33;100.00;100666.31;5022834;28;20077;-64
2021/11/02 17:55:26;;;;;;;32.13;16.30;;;;;;;6.39;100.00;100671.69;5024497;28;20130;-65
2021/11/02 17:58:12;;;;;;;34.15;16.42;;;;;;;6.40;100.00;100669.91;5010510;28;20048;-68
2021/11/02 18:01:02;;;;;;;33.47;16.33;;;;;;;6.51;100.00;100669.16;5028181;28;20099;-66
2021/11/02 18:03:49;;;;;;;33.15;16.45;;;;;;;6.43;100.00;100672.56;4994764;28;20575;-64
2021/11/02 18:06:36;;;;;;;33.38;16.30;;;;;;;6.39;100.00;100674.31;5012118;28;20052;-65
2021/11/02 18:09:22;;;;;;;31.98;15.52;;;;;;;6.39;100.00;100670.78;5027874;28;20056;-63
2021/11/02 18:12:08;;;;;;;34.53;16.70;;;;;;;6.41;100.00;100666.44;5009777;28;20069;-63
2021/11/02 18:14:53;;;;;;;;;;;;;;;6.47;100.00;100661.22;5027983;28;20128;-65
2021/11/02 18:17:50;;;;;;;33.38;16.50;;;;;;;6.39;100.00;100668.16;5010184;28;19971;-69
2021/11/02 18:20:36;;;;;;;35.42;15.98;;;;;;;6.30;100.00;100662.78;5026318;28;20520;-65
2021/11/02 18:23:22;;;;;;;34.58;17.42;;;;;;;6.37;100.00;100669.91;5011662;28;20044;-64
2021/11/02 18:26:14;;;;;;;32.55;15.73;;;;;;;6.33;100.00;100662.81;5020523;28;20064;-71
2021/11/02 18:29:05;;;;;;;34.97;16.50;;;;;;;6.31;100.00;100662.81;5026197;28;20056;-66
2021/11/02 18:31:53;;;;;;;32.55;15.43;;;;;;;6.36;100.00;100673.38;5023474;28;20421;-64
2021/11/02 18:34:40;;;;;;;28.90;15.88;;;;;;;6.47;100.00;100666.47;5017353;28;20172;-68
2021/11/02 18:37:25;;;;;;;33.60;16.00;;;;;;;6.46;100.00;100668.25;5026803;28;20060;-67
2021/11/02 18:40:17;;;;;;;34.55;15.88;;;;;;;6.48;100.00;100674.41;5001978;28;20051;-66
2021/11/02 18:43:03;;;;;;;32.55;15.75;;;;;;;6.48;100.00;100671.75;5008145;28;21135;-67
2021/11/02 18:45:48;;;;;;;33.92;17.40;;;;;;;6.52;100.00;100670.94;5025821;28;20053;-63
2021/11/02 18:48:37;;;;;;;31.00;15.93;;;;;;;6.55;100.00;100668.34;5019558;28;20870;-70
2021/11/02 18:51:22;;;;;;;31.83;16.48;;;;;;;6.62;100.00;100670.16;4991401;28;20052;-68
2021/11/02 18:54:07;;;;;;;28.08;15.00;;;;;;;6.67;100.00;100670.19;5016876;28;20072;-66
2021/11/02 18:56:55;;;;;;;34.17;16.55;;;;;;;6.61;100.00;100676.28;5024128;28;20052;-68
2021/11/02 18:59:40;;;;;;;35.92;17.13;;;;;;;6.46;100.00;100673.53;4995070;28;20103;-64
2021/11/02 19:02:25;;;;;;;31.83;15.73;;;;;;;6.26;100.00;100672.41;5022493;28;20175;-65
2021/11/02 19:05:11;;;;;;;33.90;16.90;;;;;;;6.43;100.00;100672.56;5025108;28;20060;-64
2021/11/02 19:07:55;;;;;;;32.40;16.38;;;;;;;6.52;100.00;100683.25;5025304;28;20517;-67
2021/11/02 19:10:42;;;;;;;35.08;17.73;;;;;;;6.56;100.00;100685.91;5027514;28;20064;-67
2021/11/02 19:13:27;;;;;;;36.65;17.80;;;;;;;6.56;100.00;100685.91;4997398;28;20314;-69
2021/11/02 19:16:12;;;;;;;32.10;16.13;;;;;;;6.55;100.00;100676.25;5017372;28;20244;-64
2021/11/02 19:18:57;;;;;;;34.53;17.40;;;;;;;6.52;100.00;100680.59;5024817;28;20179;-67
2021/11/02 19:21:42;;;;;;;34.45;17.48;;;;;;;6.50;100.00;100680.59;5021789;28;20052;-72
2021/11/02 19:24:30;;;;;;;30.35;16.02;;;;;;;6.61;100.00;100683.31;5027650;28;20047;-63
2021/11/02 19:27:16;;;;;;;31.67;16.27;;;;;;;6.47;100.00;100682.28;5009653;28;20084;-66
2021/11/02 19:30:02;;;;;;;32.97;16.40;;;;;;;6.44;100.00;100672.59;5026291;28;20059;-65
2021/11/02 19:32:47;;;;;;;32.33;15.50;;;;;;;6.49;100.00;100681.44;5025480;28;20056;-65
2021/11/02 19:35:36;;;;;;;30.30;14.73;;;;;;;6.52;100.00;100684.09;5010553;28;20103;-66
2021/11/02 19:38:21;;;;;;;29.90;16.20;;;;;;;6.62;100.00;100685.97;5024474;28;20091;-65
2021/11/02 19:41:07;;;;;;;32.72;16.52;;;;;;;6.60;100.00;100692.09;5003008;28;20104;-62
2021/11/02 19:43:52;;;;;;;34.45;15.98;;;;;;;6.41;100.00;100683.09;5021948;28;20060;-64
2021/11/02 19:46:36;;;;;;;34.85;17.05;;;;;;;6.46;100.00;100689.31;5023564;28;20041;-64
2021/11/02 19:49:21;;;;;;;32.28;15.88;;;;;;;6.52;100.00;100692.00;5020498;28;20469;-63
2021/11/02 19:52:06;;;;;;;33.13;16.20;;;;;;;6.43;100.00;100683.13;5020724;28;20076;-65
2021/11/02 19:54:52;;;;;;;;;;;;;;;6.53;100.00;100688.50;5010191;28;20057;-72
2021/11/02 19:57:37;;;;;;;31.35;15.48;;;;;;;6.48;100.00;100684.06;5025606;28;20391;-65